sensor_id;sensor_type;location;lat;lon;timestamp;P1;durP1;ratioP1;P2;durP2;ratioP2
58928;SDS011;44713;53.378;10.022;2023-05-07T00:00:43;13.95;;;10.05;;
58928;SDS011;44713;53.378;10.022;2023-05-07T00:03:09;14.02;;;9.85;;
58928;SDS011;44713;53.378;10.022;2023-05-07T00:05:34;14.77;;;9.65;;
58928;SDS011;44713;53.378;10.022;2023-05-07T00:08:00;11.85;;;9.05;;
58928;SDS011;44713;53.378;10.022;2023-05-07T00:10:25;12.90;;;8.43;;
58928;SDS011;44713;53.378;10.022;2023-05-07T00:12:51;12.80;;;8.98;;
58928;SDS011;44713;53.378;10.022;2023-05-07T00:15:16;9.45;;;8.35;;
58928;SDS011;44713;53.378;10.022;2023-05-07T00:17:41;12.48;;;9.32;;
58928;SDS011;44713;53.378;10.022;2023-05-07T00:20:07;11.95;;;9.48;;
58928;SDS011;44713;53.378;10.022;2023-05-07T00:22:33;11.38;;;9.30;;
58928;SDS011;44713;53.378;10.022;2023-05-07T00:24:58;11.50;;;8.25;;
58928;SDS011;44713;53.378;10.022;2023-05-07T00:27:24;9.95;;;8.32;;
58928;SDS011;44713;53.378;10.022;2023-05-07T00:29:51;9.75;;;7.93;;
58928;SDS011;44713;53.378;10.022;2023-05-07T00:32:21;10.15;;;8.38;;
58928;SDS011;44713;53.378;10.022;2023-05-07T00:34:47;10.65;;;8.48;;
58928;SDS011;44713;53.378;10.022;2023-05-07T00:37:12;9.98;;;8.52;;
58928;SDS011;44713;53.378;10.022;2023-05-07T00:39:38;10.60;;;8.35;;
58928;SDS011;44713;53.378;10.022;2023-05-07T00:42:03;10.80;;;8.07;;
58928;SDS011;44713;53.378;10.022;2023-05-07T00:44:29;8.65;;;7.25;;
58928;SDS011;44713;53.378;10.022;2023-05-07T00:46:55;9.30;;;7.60;;
58928;SDS011;44713;53.378;10.022;2023-05-07T00:49:22;11.95;;;7.93;;
58928;SDS011;44713;53.378;10.022;2023-05-07T00:51:58;8.93;;;7.40;;
58928;SDS011;44713;53.378;10.022;2023-05-07T00:54:25;7.68;;;6.75;;
58928;SDS011;44713;53.378;10.022;2023-05-07T00:56:51;9.18;;;8.00;;
58928;SDS011;44713;53.378;10.022;2023-05-07T00:59:17;9.80;;;7.03;;
58928;SDS011;44713;53.378;10.022;2023-05-07T01:01:42;8.15;;;6.60;;
58928;SDS011;44713;53.378;10.022;2023-05-07T01:04:08;8.90;;;7.47;;
58928;SDS011;44713;53.378;10.022;2023-05-07T01:06:33;9.57;;;7.95;;
58928;SDS011;44713;53.378;10.022;2023-05-07T01:08:59;9.68;;;7.50;;
58928;SDS011;44713;53.378;10.022;2023-05-07T01:11:25;7.60;;;6.50;;
58928;SDS011;44713;53.378;10.022;2023-05-07T01:13:51;7.93;;;6.82;;
58928;SDS011;44713;53.378;10.022;2023-05-07T01:16:17;7.10;;;6.38;;
58928;SDS011;44713;53.378;10.022;2023-05-07T01:18:42;8.77;;;7.88;;
58928;SDS011;44713;53.378;10.022;2023-05-07T01:21:08;7.60;;;6.78;;
58928;SDS011;44713;53.378;10.022;2023-05-07T01:23:36;8.32;;;6.85;;
58928;SDS011;44713;53.378;10.022;2023-05-07T01:26:03;7.50;;;6.68;;
58928;SDS011;44713;53.378;10.022;2023-05-07T01:28:30;9.70;;;7.00;;
58928;SDS011;44713;53.378;10.022;2023-05-07T01:31:00;8.32;;;7.10;;
58928;SDS011;44713;53.378;10.022;2023-05-07T01:33:27;11.95;;;7.40;;
58928;SDS011;44713;53.378;10.022;2023-05-07T01:35:56;8.35;;;7.32;;
58928;SDS011;44713;53.378;10.022;2023-05-07T01:38:25;7.97;;;7.18;;
58928;SDS011;44713;53.378;10.022;2023-05-07T01:40:52;8.68;;;7.32;;
58928;SDS011;44713;53.378;10.022;2023-05-07T01:43:18;9.70;;;7.28;;
58928;SDS011;44713;53.378;10.022;2023-05-07T01:45:44;8.45;;;7.35;;
58928;SDS011;44713;53.378;10.022;2023-05-07T01:48:10;8.85;;;7.07;;
58928;SDS011;44713;53.378;10.022;2023-05-07T01:50:37;8.00;;;7.10;;
58928;SDS011;44713;53.378;10.022;2023-05-07T01:53:03;9.13;;;7.90;;
58928;SDS011;44713;53.378;10.022;2023-05-07T01:55:29;8.88;;;7.60;;
58928;SDS011;44713;53.378;10.022;2023-05-07T01:57:54;8.60;;;7.47;;
58928;SDS011;44713;53.378;10.022;2023-05-07T02:00:20;8.18;;;7.38;;
58928;SDS011;44713;53.378;10.022;2023-05-07T02:02:45;8.82;;;7.88;;
58928;SDS011;44713;53.378;10.022;2023-05-07T02:05:23;8.30;;;7.40;;
58928;SDS011;44713;53.378;10.022;2023-05-07T02:07:56;8.27;;;7.32;;
58928;SDS011;44713;53.378;10.022;2023-05-07T02:10:22;8.85;;;7.85;;
58928;SDS011;44713;53.378;10.022;2023-05-07T02:12:47;9.38;;;7.55;;
58928;SDS011;44713;53.378;10.022;2023-05-07T02:15:13;9.35;;;7.30;;
58928;SDS011;44713;53.378;10.022;2023-05-07T02:20:24;8.85;;;7.68;;
58928;SDS011;44713;53.378;10.022;2023-05-07T02:22:49;8.93;;;7.60;;
58928;SDS011;44713;53.378;10.022;2023-05-07T02:25:15;8.93;;;7.80;;
58928;SDS011;44713;53.378;10.022;2023-05-07T02:27:40;8.27;;;7.40;;
58928;SDS011;44713;53.378;10.022;2023-05-07T02:30:06;9.25;;;7.63;;
58928;SDS011;44713;53.378;10.022;2023-05-07T02:32:32;8.43;;;7.53;;
58928;SDS011;44713;53.378;10.022;2023-05-07T02:34:57;8.80;;;7.30;;
58928;SDS011;44713;53.378;10.022;2023-05-07T02:37:22;8.90;;;7.55;;
58928;SDS011;44713;53.378;10.022;2023-05-07T02:39:48;9.32;;;7.20;;
58928;SDS011;44713;53.378;10.022;2023-05-07T02:42:13;9.57;;;8.52;;
58928;SDS011;44713;53.378;10.022;2023-05-07T02:44:39;8.00;;;7.20;;
58928;SDS011;44713;53.378;10.022;2023-05-07T02:47:04;9.40;;;8.38;;
58928;SDS011;44713;53.378;10.022;2023-05-07T02:49:30;10.30;;;8.60;;
58928;SDS011;44713;53.378;10.022;2023-05-07T02:51:55;10.70;;;7.97;;
58928;SDS011;44713;53.378;10.022;2023-05-07T02:54:23;8.70;;;7.88;;
58928;SDS011;44713;53.378;10.022;2023-05-07T02:56:48;9.13;;;7.80;;
58928;SDS011;44713;53.378;10.022;2023-05-07T02:59:14;11.63;;;8.52;;
58928;SDS011;44713;53.378;10.022;2023-05-07T03:01:41;10.02;;;8.93;;
58928;SDS011;44713;53.378;10.022;2023-05-07T03:04:09;12.10;;;9.35;;
58928;SDS011;44713;53.378;10.022;2023-05-07T03:06:35;9.52;;;8.50;;
58928;SDS011;44713;53.378;10.022;2023-05-07T03:09:01;10.55;;;8.65;;
58928;SDS011;44713;53.378;10.022;2023-05-07T03:11:27;11.55;;;9.40;;
58928;SDS011;44713;53.378;10.022;2023-05-07T03:13:52;10.30;;;8.45;;
58928;SDS011;44713;53.378;10.022;2023-05-07T03:16:19;8.85;;;7.88;;
58928;SDS011;44713;53.378;10.022;2023-05-07T03:18:44;9.80;;;8.73;;
58928;SDS011;44713;53.378;10.022;2023-05-07T03:21:10;10.82;;;9.00;;
58928;SDS011;44713;53.378;10.022;2023-05-07T03:23:35;10.48;;;8.23;;
58928;SDS011;44713;53.378;10.022;2023-05-07T03:26:01;13.30;;;8.90;;
58928;SDS011;44713;53.378;10.022;2023-05-07T03:28:26;10.77;;;9.38;;
58928;SDS011;44713;53.378;10.022;2023-05-07T03:30:57;11.07;;;9.50;;
58928;SDS011;44713;53.378;10.022;2023-05-07T03:33:22;9.88;;;8.88;;
58928;SDS011;44713;53.378;10.022;2023-05-07T03:35:48;10.35;;;8.70;;
58928;SDS011;44713;53.378;10.022;2023-05-07T03:38:19;10.70;;;8.25;;
58928;SDS011;44713;53.378;10.022;2023-05-07T03:40:44;10.55;;;8.95;;
58928;SDS011;44713;53.378;10.022;2023-05-07T03:43:09;12.05;;;9.45;;
58928;SDS011;44713;53.378;10.022;2023-05-07T03:45:38;10.38;;;8.57;;
58928;SDS011;44713;53.378;10.022;2023-05-07T03:48:14;11.23;;;9.25;;
58928;SDS011;44713;53.378;10.022;2023-05-07T03:50:40;10.75;;;9.57;;
58928;SDS011;44713;53.378;10.022;2023-05-07T03:53:06;11.10;;;9.40;;
58928;SDS011;44713;53.378;10.022;2023-05-07T03:55:36;13.20;;;9.77;;
58928;SDS011;44713;53.378;10.022;2023-05-07T03:58:01;10.80;;;9.45;;
58928;SDS011;44713;53.378;10.022;2023-05-07T04:00:27;11.13;;;9.23;;
58928;SDS011;44713;53.378;10.022;2023-05-07T04:02:57;12.50;;;9.57;;
58928;SDS011;44713;53.378;10.022;2023-05-07T04:05:25;12.32;;;10.43;;
58928;SDS011;44713;53.378;10.022;2023-05-07T04:07:57;11.25;;;9.55;;
58928;SDS011;44713;53.378;10.022;2023-05-07T04:10:29;11.48;;;9.85;;
58928;SDS011;44713;53.378;10.022;2023-05-07T04:12:56;12.75;;;9.82;;
58928;SDS011;44713;53.378;10.022;2023-05-07T04:15:23;12.38;;;10.07;;
58928;SDS011;44713;53.378;10.022;2023-05-07T04:17:49;13.00;;;9.38;;
58928;SDS011;44713;53.378;10.022;2023-05-07T04:20:16;11.77;;;9.75;;
58928;SDS011;44713;53.378;10.022;2023-05-07T04:22:45;13.43;;;10.00;;
58928;SDS011;44713;53.378;10.022;2023-05-07T04:25:10;10.98;;;9.13;;
58928;SDS011;44713;53.378;10.022;2023-05-07T04:27:36;11.98;;;8.95;;
58928;SDS011;44713;53.378;10.022;2023-05-07T04:30:03;12.05;;;9.80;;
58928;SDS011;44713;53.378;10.022;2023-05-07T04:32:33;13.05;;;10.02;;
58928;SDS011;44713;53.378;10.022;2023-05-07T04:34:59;11.50;;;9.40;;
58928;SDS011;44713;53.378;10.022;2023-05-07T04:37:25;11.10;;;9.60;;
58928;SDS011;44713;53.378;10.022;2023-05-07T04:39:51;13.18;;;10.68;;
58928;SDS011;44713;53.378;10.022;2023-05-07T04:42:17;11.15;;;9.02;;
58928;SDS011;44713;53.378;10.022;2023-05-07T04:44:44;14.18;;;10.20;;
58928;SDS011;44713;53.378;10.022;2023-05-07T04:47:10;11.23;;;9.30;;
58928;SDS011;44713;53.378;10.022;2023-05-07T04:49:36;12.55;;;9.85;;
58928;SDS011;44713;53.378;10.022;2023-05-07T04:52:02;10.57;;;9.45;;
58928;SDS011;44713;53.378;10.022;2023-05-07T04:54:28;12.00;;;9.77;;
58928;SDS011;44713;53.378;10.022;2023-05-07T04:56:55;11.93;;;9.32;;
58928;SDS011;44713;53.378;10.022;2023-05-07T04:59:20;14.10;;;9.90;;
58928;SDS011;44713;53.378;10.022;2023-05-07T05:01:46;13.25;;;9.18;;
58928;SDS011;44713;53.378;10.022;2023-05-07T05:04:12;12.82;;;9.50;;
58928;SDS011;44713;53.378;10.022;2023-05-07T05:06:39;12.30;;;9.63;;
58928;SDS011;44713;53.378;10.022;2023-05-07T05:09:06;12.10;;;8.80;;
58928;SDS011;44713;53.378;10.022;2023-05-07T05:11:32;11.60;;;8.80;;
58928;SDS011;44713;53.378;10.022;2023-05-07T05:13:59;12.68;;;9.20;;
58928;SDS011;44713;53.378;10.022;2023-05-07T05:16:24;12.70;;;9.45;;
58928;SDS011;44713;53.378;10.022;2023-05-07T05:18:50;17.23;;;10.38;;
58928;SDS011;44713;53.378;10.022;2023-05-07T05:21:18;13.27;;;9.77;;
58928;SDS011;44713;53.378;10.022;2023-05-07T05:23:45;13.93;;;9.85;;
58928;SDS011;44713;53.378;10.022;2023-05-07T05:26:12;12.20;;;9.35;;
58928;SDS011;44713;53.378;10.022;2023-05-07T05:28:38;13.48;;;9.55;;
58928;SDS011;44713;53.378;10.022;2023-05-07T05:31:04;17.33;;;9.45;;
58928;SDS011;44713;53.378;10.022;2023-05-07T05:33:33;12.50;;;9.65;;
58928;SDS011;44713;53.378;10.022;2023-05-07T05:36:02;11.73;;;9.77;;
58928;SDS011;44713;53.378;10.022;2023-05-07T05:38:28;11.43;;;9.23;;
58928;SDS011;44713;53.378;10.022;2023-05-07T05:40:54;11.65;;;9.60;;
58928;SDS011;44713;53.378;10.022;2023-05-07T05:43:19;11.57;;;8.52;;
58928;SDS011;44713;53.378;10.022;2023-05-07T05:45:45;11.80;;;8.80;;
58928;SDS011;44713;53.378;10.022;2023-05-07T05:48:10;10.77;;;9.43;;
58928;SDS011;44713;53.378;10.022;2023-05-07T05:50:37;9.43;;;8.30;;
58928;SDS011;44713;53.378;10.022;2023-05-07T05:53:03;10.85;;;8.48;;
58928;SDS011;44713;53.378;10.022;2023-05-07T05:55:29;10.45;;;8.45;;
58928;SDS011;44713;53.378;10.022;2023-05-07T05:57:55;12.23;;;9.35;;
58928;SDS011;44713;53.378;10.022;2023-05-07T06:00:22;11.02;;;8.10;;
58928;SDS011;44713;53.378;10.022;2023-05-07T06:02:55;11.07;;;9.07;;
58928;SDS011;44713;53.378;10.022;2023-05-07T06:05:23;12.20;;;9.38;;
58928;SDS011;44713;53.378;10.022;2023-05-07T06:07:51;9.45;;;7.90;;
58928;SDS011;44713;53.378;10.022;2023-05-07T06:10:17;12.38;;;7.93;;
58928;SDS011;44713;53.378;10.022;2023-05-07T06:12:43;11.02;;;8.15;;
58928;SDS011;44713;53.378;10.022;2023-05-07T06:15:13;13.23;;;8.82;;
58928;SDS011;44713;53.378;10.022;2023-05-07T06:17:43;10.02;;;8.38;;
58928;SDS011;44713;53.378;10.022;2023-05-07T06:20:10;11.63;;;8.05;;
58928;SDS011;44713;53.378;10.022;2023-05-07T06:22:35;10.82;;;8.45;;
58928;SDS011;44713;53.378;10.022;2023-05-07T06:25:02;9.82;;;8.20;;
58928;SDS011;44713;53.378;10.022;2023-05-07T06:27:27;13.32;;;7.90;;
58928;SDS011;44713;53.378;10.022;2023-05-07T06:29:53;10.75;;;8.43;;
58928;SDS011;44713;53.378;10.022;2023-05-07T06:32:19;10.52;;;9.10;;
58928;SDS011;44713;53.378;10.022;2023-05-07T06:34:45;9.48;;;8.05;;
58928;SDS011;44713;53.378;10.022;2023-05-07T06:37:12;9.35;;;7.38;;
58928;SDS011;44713;53.378;10.022;2023-05-07T06:39:53;9.60;;;7.50;;
58928;SDS011;44713;53.378;10.022;2023-05-07T06:42:19;10.63;;;7.78;;
58928;SDS011;44713;53.378;10.022;2023-05-07T06:44:46;10.45;;;7.78;;
58928;SDS011;44713;53.378;10.022;2023-05-07T06:47:14;11.23;;;7.47;;
58928;SDS011;44713;53.378;10.022;2023-05-07T06:49:40;10.45;;;7.78;;
58928;SDS011;44713;53.378;10.022;2023-05-07T06:52:05;9.55;;;7.72;;
58928;SDS011;44713;53.378;10.022;2023-05-07T06:54:31;10.55;;;7.38;;
58928;SDS011;44713;53.378;10.022;2023-05-07T06:56:57;10.00;;;7.72;;
58928;SDS011;44713;53.378;10.022;2023-05-07T06:59:25;12.98;;;7.75;;
58928;SDS011;44713;53.378;10.022;2023-05-07T07:01:51;11.52;;;7.32;;
58928;SDS011;44713;53.378;10.022;2023-05-07T07:04:16;8.57;;;7.68;;
58928;SDS011;44713;53.378;10.022;2023-05-07T07:06:45;8.90;;;7.10;;
58928;SDS011;44713;53.378;10.022;2023-05-07T07:09:12;9.10;;;6.97;;
58928;SDS011;44713;53.378;10.022;2023-05-07T07:11:37;10.23;;;6.82;;
58928;SDS011;44713;53.378;10.022;2023-05-07T07:14:04;9.95;;;7.07;;
58928;SDS011;44713;53.378;10.022;2023-05-07T07:16:33;11.20;;;7.40;;
58928;SDS011;44713;53.378;10.022;2023-05-07T07:18:59;9.45;;;7.22;;
58928;SDS011;44713;53.378;10.022;2023-05-07T07:21:25;11.80;;;7.85;;
58928;SDS011;44713;53.378;10.022;2023-05-07T07:23:51;8.77;;;6.88;;
58928;SDS011;44713;53.378;10.022;2023-05-07T07:26:18;9.43;;;7.80;;
58928;SDS011;44713;53.378;10.022;2023-05-07T07:28:44;8.75;;;6.97;;
58928;SDS011;44713;53.378;10.022;2023-05-07T07:31:12;8.30;;;7.10;;
58928;SDS011;44713;53.378;10.022;2023-05-07T07:33:38;8.18;;;6.30;;
58928;SDS011;44713;53.378;10.022;2023-05-07T07:36:04;8.32;;;6.65;;
58928;SDS011;44713;53.378;10.022;2023-05-07T07:38:31;10.65;;;6.05;;
58928;SDS011;44713;53.378;10.022;2023-05-07T07:40:56;9.23;;;6.18;;
58928;SDS011;44713;53.378;10.022;2023-05-07T07:43:22;11.25;;;7.57;;
58928;SDS011;44713;53.378;10.022;2023-05-07T07:45:48;8.50;;;7.18;;
58928;SDS011;44713;53.378;10.022;2023-05-07T07:48:13;10.73;;;8.23;;
58928;SDS011;44713;53.378;10.022;2023-05-07T07:50:39;16.35;;;11.75;;
58928;SDS011;44713;53.378;10.022;2023-05-07T07:53:05;7.75;;;6.43;;
58928;SDS011;44713;53.378;10.022;2023-05-07T07:55:31;38.05;;;25.65;;
58928;SDS011;44713;53.378;10.022;2023-05-07T07:57:58;14.38;;;11.63;;
58928;SDS011;44713;53.378;10.022;2023-05-07T08:00:23;20.25;;;15.70;;
58928;SDS011;44713;53.378;10.022;2023-05-07T08:02:53;12.55;;;8.32;;
58928;SDS011;44713;53.378;10.022;2023-05-07T08:05:24;8.23;;;6.30;;
58928;SDS011;44713;53.378;10.022;2023-05-07T08:07:51;8.75;;;6.20;;
58928;SDS011;44713;53.378;10.022;2023-05-07T08:10:21;7.28;;;6.15;;
58928;SDS011;44713;53.378;10.022;2023-05-07T08:12:49;8.98;;;6.18;;
58928;SDS011;44713;53.378;10.022;2023-05-07T08:15:15;8.32;;;5.60;;
58928;SDS011;44713;53.378;10.022;2023-05-07T08:17:41;8.57;;;6.38;;
58928;SDS011;44713;53.378;10.022;2023-05-07T08:20:06;8.18;;;6.35;;
58928;SDS011;44713;53.378;10.022;2023-05-07T08:22:36;8.45;;;6.30;;
58928;SDS011;44713;53.378;10.022;2023-05-07T08:25:02;7.00;;;5.78;;
58928;SDS011;44713;53.378;10.022;2023-05-07T08:27:29;7.03;;;6.05;;
58928;SDS011;44713;53.378;10.022;2023-05-07T08:29:55;7.00;;;6.13;;
58928;SDS011;44713;53.378;10.022;2023-05-07T08:32:21;7.00;;;6.18;;
58928;SDS011;44713;53.378;10.022;2023-05-07T08:34:47;6.63;;;5.93;;
58928;SDS011;44713;53.378;10.022;2023-05-07T08:37:13;6.13;;;5.40;;
58928;SDS011;44713;53.378;10.022;2023-05-07T08:39:39;6.20;;;5.60;;
58928;SDS011;44713;53.378;10.022;2023-05-07T08:42:11;10.40;;;9.25;;
58928;SDS011;44713;53.378;10.022;2023-05-07T08:44:39;7.10;;;6.05;;
58928;SDS011;44713;53.378;10.022;2023-05-07T08:47:06;7.88;;;6.38;;
58928;SDS011;44713;53.378;10.022;2023-05-07T08:49:33;5.93;;;4.95;;
58928;SDS011;44713;53.378;10.022;2023-05-07T08:51:59;7.57;;;6.78;;
58928;SDS011;44713;53.378;10.022;2023-05-07T08:54:26;6.05;;;5.20;;
58928;SDS011;44713;53.378;10.022;2023-05-07T08:56:53;7.05;;;4.93;;
58928;SDS011;44713;53.378;10.022;2023-05-07T08:59:19;6.68;;;5.25;;
58928;SDS011;44713;53.378;10.022;2023-05-07T09:01:44;6.65;;;5.28;;
58928;SDS011;44713;53.378;10.022;2023-05-07T09:04:11;5.28;;;4.43;;
58928;SDS011;44713;53.378;10.022;2023-05-07T09:06:38;5.93;;;4.68;;
58928;SDS011;44713;53.378;10.022;2023-05-07T09:09:08;6.40;;;4.80;;
58928;SDS011;44713;53.378;10.022;2023-05-07T09:11:34;5.28;;;4.78;;
58928;SDS011;44713;53.378;10.022;2023-05-07T09:14:00;7.43;;;5.32;;
58928;SDS011;44713;53.378;10.022;2023-05-07T09:16:28;5.80;;;4.93;;
58928;SDS011;44713;53.378;10.022;2023-05-07T09:18:57;6.47;;;4.78;;
58928;SDS011;44713;53.378;10.022;2023-05-07T09:21:25;6.18;;;5.40;;
58928;SDS011;44713;53.378;10.022;2023-05-07T09:23:54;5.82;;;4.68;;
58928;SDS011;44713;53.378;10.022;2023-05-07T09:26:24;5.97;;;5.38;;
58928;SDS011;44713;53.378;10.022;2023-05-07T09:28:50;6.78;;;5.22;;
58928;SDS011;44713;53.378;10.022;2023-05-07T09:31:17;7.53;;;5.20;;
58928;SDS011;44713;53.378;10.022;2023-05-07T09:33:43;9.65;;;5.45;;
58928;SDS011;44713;53.378;10.022;2023-05-07T09:36:10;6.60;;;5.80;;
58928;SDS011;44713;53.378;10.022;2023-05-07T09:38:38;8.23;;;6.45;;
58928;SDS011;44713;53.378;10.022;2023-05-07T09:43:34;6.97;;;4.60;;
58928;SDS011;44713;53.378;10.022;2023-05-07T09:46:14;7.53;;;4.53;;
58928;SDS011;44713;53.378;10.022;2023-05-07T09:48:47;7.38;;;5.45;;
58928;SDS011;44713;53.378;10.022;2023-05-07T09:51:30;5.72;;;5.20;;
58928;SDS011;44713;53.378;10.022;2023-05-07T09:53:59;8.63;;;6.55;;
58928;SDS011;44713;53.378;10.022;2023-05-07T09:56:29;8.65;;;6.35;;
58928;SDS011;44713;53.378;10.022;2023-05-07T09:58:56;7.57;;;6.28;;
58928;SDS011;44713;53.378;10.022;2023-05-07T10:01:24;7.15;;;6.15;;
58928;SDS011;44713;53.378;10.022;2023-05-07T10:03:50;6.43;;;5.82;;
58928;SDS011;44713;53.378;10.022;2023-05-07T10:06:18;6.55;;;5.93;;
58928;SDS011;44713;53.378;10.022;2023-05-07T10:08:45;6.00;;;5.40;;
58928;SDS011;44713;53.378;10.022;2023-05-07T10:11:11;7.75;;;6.07;;
58928;SDS011;44713;53.378;10.022;2023-05-07T10:13:37;6.75;;;5.80;;
58928;SDS011;44713;53.378;10.022;2023-05-07T10:16:04;8.43;;;5.82;;
58928;SDS011;44713;53.378;10.022;2023-05-07T10:18:35;7.88;;;6.32;;
58928;SDS011;44713;53.378;10.022;2023-05-07T10:21:18;9.95;;;6.70;;
58928;SDS011;44713;53.378;10.022;2023-05-07T10:23:51;6.18;;;5.57;;
58928;SDS011;44713;53.378;10.022;2023-05-07T10:26:23;7.70;;;6.03;;
58928;SDS011;44713;53.378;10.022;2023-05-07T10:28:53;8.05;;;7.10;;
58928;SDS011;44713;53.378;10.022;2023-05-07T10:34:17;6.75;;;6.00;;
58928;SDS011;44713;53.378;10.022;2023-05-07T10:36:48;8.02;;;6.40;;
58928;SDS011;44713;53.378;10.022;2023-05-07T10:39:15;6.63;;;6.00;;
58928;SDS011;44713;53.378;10.022;2023-05-07T10:41:41;7.72;;;6.50;;
58928;SDS011;44713;53.378;10.022;2023-05-07T10:44:08;8.30;;;5.95;;
58928;SDS011;44713;53.378;10.022;2023-05-07T10:46:35;6.80;;;6.07;;
58928;SDS011;44713;53.378;10.022;2023-05-07T10:49:15;7.13;;;6.15;;
58928;SDS011;44713;53.378;10.022;2023-05-07T10:52:14;7.40;;;6.03;;
58928;SDS011;44713;53.378;10.022;2023-05-07T10:55:18;8.57;;;6.13;;
58928;SDS011;44713;53.378;10.022;2023-05-07T10:57:57;6.47;;;5.85;;
58928;SDS011;44713;53.378;10.022;2023-05-07T11:01:00;8.73;;;6.75;;
58928;SDS011;44713;53.378;10.022;2023-05-07T11:03:37;7.15;;;6.18;;
58928;SDS011;44713;53.378;10.022;2023-05-07T11:06:38;6.93;;;5.90;;
58928;SDS011;44713;53.378;10.022;2023-05-07T11:09:08;7.90;;;6.03;;
58928;SDS011;44713;53.378;10.022;2023-05-07T11:11:44;7.20;;;5.95;;
58928;SDS011;44713;53.378;10.022;2023-05-07T11:17:09;7.25;;;5.80;;
58928;SDS011;44713;53.378;10.022;2023-05-07T11:19:55;6.65;;;5.90;;
58928;SDS011;44713;53.378;10.022;2023-05-07T11:22:41;7.57;;;5.32;;
58928;SDS011;44713;53.378;10.022;2023-05-07T11:25:33;6.00;;;5.35;;
58928;SDS011;44713;53.378;10.022;2023-05-07T11:28:20;6.40;;;5.10;;
58928;SDS011;44713;53.378;10.022;2023-05-07T11:30:54;5.55;;;5.05;;
58928;SDS011;44713;53.378;10.022;2023-05-07T11:33:20;7.70;;;5.43;;
58928;SDS011;44713;53.378;10.022;2023-05-07T11:35:49;8.15;;;5.53;;
58928;SDS011;44713;53.378;10.022;2023-05-07T11:38:17;5.32;;;4.82;;
58928;SDS011;44713;53.378;10.022;2023-05-07T11:40:53;9.00;;;5.70;;
58928;SDS011;44713;53.378;10.022;2023-05-07T11:43:20;8.65;;;5.05;;
58928;SDS011;44713;53.378;10.022;2023-05-07T11:45:45;6.07;;;4.97;;
58928;SDS011;44713;53.378;10.022;2023-05-07T11:48:12;7.15;;;5.63;;
58928;SDS011;44713;53.378;10.022;2023-05-07T11:53:27;6.38;;;5.55;;
58928;SDS011;44713;53.378;10.022;2023-05-07T11:55:59;5.40;;;4.80;;
58928;SDS011;44713;53.378;10.022;2023-05-07T11:58:25;4.93;;;4.53;;
58928;SDS011;44713;53.378;10.022;2023-05-07T12:00:51;5.13;;;4.63;;
58928;SDS011;44713;53.378;10.022;2023-05-07T12:03:17;7.50;;;4.90;;
58928;SDS011;44713;53.378;10.022;2023-05-07T12:05:43;6.90;;;4.53;;
58928;SDS011;44713;53.378;10.022;2023-05-07T12:08:13;6.68;;;4.38;;
58928;SDS011;44713;53.378;10.022;2023-05-07T12:10:41;5.38;;;4.43;;
58928;SDS011;44713;53.378;10.022;2023-05-07T12:13:13;5.32;;;4.10;;
58928;SDS011;44713;53.378;10.022;2023-05-07T12:15:40;5.15;;;4.63;;
58928;SDS011;44713;53.378;10.022;2023-05-07T12:18:05;4.78;;;3.90;;
58928;SDS011;44713;53.378;10.022;2023-05-07T12:20:31;6.70;;;4.10;;
58928;SDS011;44713;53.378;10.022;2023-05-07T12:22:56;4.45;;;4.00;;
58928;SDS011;44713;53.378;10.022;2023-05-07T12:25:22;5.45;;;3.58;;
58928;SDS011;44713;53.378;10.022;2023-05-07T12:27:51;5.05;;;3.63;;
58928;SDS011;44713;53.378;10.022;2023-05-07T12:30:17;5.38;;;3.83;;
58928;SDS011;44713;53.378;10.022;2023-05-07T12:32:44;3.95;;;3.53;;
58928;SDS011;44713;53.378;10.022;2023-05-07T12:35:10;3.83;;;3.28;;
58928;SDS011;44713;53.378;10.022;2023-05-07T12:37:35;5.10;;;3.03;;
58928;SDS011;44713;53.378;10.022;2023-05-07T12:42:37;3.95;;;3.00;;
58928;SDS011;44713;53.378;10.022;2023-05-07T12:45:12;3.58;;;3.22;;
58928;SDS011;44713;53.378;10.022;2023-05-07T12:47:43;8.50;;;3.50;;
58928;SDS011;44713;53.378;10.022;2023-05-07T12:50:10;4.75;;;3.30;;
58928;SDS011;44713;53.378;10.022;2023-05-07T12:52:35;3.78;;;3.00;;
58928;SDS011;44713;53.378;10.022;2023-05-07T12:55:04;4.22;;;2.78;;
58928;SDS011;44713;53.378;10.022;2023-05-07T12:57:31;3.40;;;3.10;;
58928;SDS011;44713;53.378;10.022;2023-05-07T13:00:03;3.60;;;3.15;;
58928;SDS011;44713;53.378;10.022;2023-05-07T13:02:47;3.22;;;2.75;;
58928;SDS011;44713;53.378;10.022;2023-05-07T13:05:12;3.55;;;2.90;;
58928;SDS011;44713;53.378;10.022;2023-05-07T13:07:38;3.70;;;3.08;;
58928;SDS011;44713;53.378;10.022;2023-05-07T13:10:05;4.40;;;2.70;;
58928;SDS011;44713;53.378;10.022;2023-05-07T13:12:31;3.03;;;2.78;;
58928;SDS011;44713;53.378;10.022;2023-05-07T13:14:57;2.47;;;2.28;;
58928;SDS011;44713;53.378;10.022;2023-05-07T13:17:22;3.42;;;2.63;;
58928;SDS011;44713;53.378;10.022;2023-05-07T13:19:47;5.30;;;2.97;;
58928;SDS011;44713;53.378;10.022;2023-05-07T13:22:13;4.10;;;3.25;;
58928;SDS011;44713;53.378;10.022;2023-05-07T13:24:38;3.35;;;2.80;;
58928;SDS011;44713;53.378;10.022;2023-05-07T13:27:06;3.08;;;2.67;;
58928;SDS011;44713;53.378;10.022;2023-05-07T13:29:32;3.10;;;2.60;;
58928;SDS011;44713;53.378;10.022;2023-05-07T13:31:57;5.10;;;3.03;;
58928;SDS011;44713;53.378;10.022;2023-05-07T13:34:22;3.03;;;2.60;;
58928;SDS011;44713;53.378;10.022;2023-05-07T13:36:48;3.15;;;2.67;;
58928;SDS011;44713;53.378;10.022;2023-05-07T13:39:13;3.28;;;2.42;;
58928;SDS011;44713;53.378;10.022;2023-05-07T13:41:39;2.55;;;2.35;;
58928;SDS011;44713;53.378;10.022;2023-05-07T13:44:04;2.45;;;2.25;;
58928;SDS011;44713;53.378;10.022;2023-05-07T13:46:29;2.97;;;2.15;;
58928;SDS011;44713;53.378;10.022;2023-05-07T13:48:55;2.70;;;2.45;;
58928;SDS011;44713;53.378;10.022;2023-05-07T13:51:21;2.42;;;2.20;;
58928;SDS011;44713;53.378;10.022;2023-05-07T13:53:47;3.67;;;2.30;;
58928;SDS011;44713;53.378;10.022;2023-05-07T13:56:12;2.60;;;2.40;;
58928;SDS011;44713;53.378;10.022;2023-05-07T13:58:39;2.53;;;2.00;;
58928;SDS011;44713;53.378;10.022;2023-05-07T14:01:04;3.55;;;1.73;;
58928;SDS011;44713;53.378;10.022;2023-05-07T14:03:30;2.65;;;2.22;;
58928;SDS011;44713;53.378;10.022;2023-05-07T14:05:56;2.17;;;1.95;;
58928;SDS011;44713;53.378;10.022;2023-05-07T14:08:23;2.85;;;2.22;;
58928;SDS011;44713;53.378;10.022;2023-05-07T14:10:48;3.47;;;2.50;;
58928;SDS011;44713;53.378;10.022;2023-05-07T14:13:13;2.15;;;1.95;;
58928;SDS011;44713;53.378;10.022;2023-05-07T14:15:39;1.55;;;1.45;;
58928;SDS011;44713;53.378;10.022;2023-05-07T14:18:05;2.55;;;1.88;;
58928;SDS011;44713;53.378;10.022;2023-05-07T14:20:30;2.33;;;1.88;;
58928;SDS011;44713;53.378;10.022;2023-05-07T14:22:56;4.18;;;2.00;;
58928;SDS011;44713;53.378;10.022;2023-05-07T14:25:21;2.97;;;1.90;;
58928;SDS011;44713;53.378;10.022;2023-05-07T14:27:50;4.20;;;1.90;;
58928;SDS011;44713;53.378;10.022;2023-05-07T14:30:15;2.80;;;1.98;;
58928;SDS011;44713;53.378;10.022;2023-05-07T14:32:41;1.88;;;1.70;;
58928;SDS011;44713;53.378;10.022;2023-05-07T14:35:07;2.05;;;1.40;;
58928;SDS011;44713;53.378;10.022;2023-05-07T14:37:33;2.40;;;1.70;;
58928;SDS011;44713;53.378;10.022;2023-05-07T14:39:58;2.00;;;1.70;;
58928;SDS011;44713;53.378;10.022;2023-05-07T14:42:23;2.22;;;1.60;;
58928;SDS011;44713;53.378;10.022;2023-05-07T14:44:49;2.35;;;1.60;;
58928;SDS011;44713;53.378;10.022;2023-05-07T14:47:14;4.15;;;1.60;;
58928;SDS011;44713;53.378;10.022;2023-05-07T14:49:41;2.65;;;1.40;;